createdAt,value
2022-12-22T00:00:15.096Z,1.00
2022-12-22T00:03:00.607Z,1.00
2022-12-22T00:05:46.108Z,1.00
2022-12-22T00:08:31.687Z,1.00
2022-12-22T00:11:18.738Z,1.00
2022-12-22T00:14:05.567Z,1.00
2022-12-22T00:16:55.966Z,1.00
2022-12-22T00:19:41.781Z,1.00
2022-12-22T00:22:37.958Z,1.00
2022-12-22T00:25:23.407Z,1.00
2022-12-22T00:28:08.748Z,1.00
2022-12-22T00:30:55.477Z,1.00
2022-12-22T00:33:40.880Z,1.00
2022-12-22T00:36:29.820Z,1.00
2022-12-22T00:39:15.319Z,1.00
2022-12-22T00:42:00.825Z,1.00
2022-12-22T00:44:46.202Z,1.00
2022-12-22T00:47:46.914Z,1.00
2022-12-22T00:50:33.585Z,1.00
2022-12-22T00:53:20.035Z,1.00
2022-12-22T00:56:05.600Z,1.00
2022-12-22T00:58:51.101Z,1.00
2022-12-22T01:01:36.682Z,1.00
2022-12-22T01:04:22.059Z,1.00
2022-12-22T01:07:07.464Z,1.00
2022-12-22T01:09:54.013Z,1.00
2022-12-22T01:12:45.612Z,1.00
2022-12-22T01:15:36.980Z,1.00
2022-12-22T01:18:24.022Z,1.00
2022-12-22T01:21:10.161Z,1.00
2022-12-22T01:23:56.108Z,1.00
2022-12-22T01:26:41.639Z,1.00
2022-12-22T01:29:27.246Z,1.00
2022-12-22T01:32:13.626Z,1.00
2022-12-22T01:34:59.755Z,1.00
2022-12-22T01:37:45.418Z,1.00
2022-12-22T01:40:43.582Z,1.00
2022-12-22T01:43:39.980Z,1.00
2022-12-22T01:46:45.101Z,1.00
2022-12-22T01:49:36.531Z,1.00
2022-12-22T01:52:23.033Z,1.00
2022-12-22T01:55:09.121Z,1.00
2022-12-22T01:57:55.725Z,1.00
2022-12-22T02:00:41.855Z,1.00
2022-12-22T02:03:35.798Z,1.00
2022-12-22T02:06:34.339Z,1.00
2022-12-22T02:09:55.203Z,1.00
2022-12-22T02:12:58.864Z,1.00
2022-12-22T02:15:55.597Z,1.00
2022-12-22T02:18:57.173Z,1.00
2022-12-22T02:21:44.709Z,99.90
2022-12-22T02:24:59.992Z,99.90
2022-12-22T02:27:46.915Z,99.90
2022-12-22T02:30:32.605Z,99.90
2022-12-22T02:33:18.195Z,99.90
2022-12-22T02:36:06.355Z,99.90
2022-12-22T02:39:25.378Z,99.90
2022-12-22T02:42:43.620Z,99.90
2022-12-22T02:45:52.867Z,99.90
2022-12-22T02:48:45.498Z,99.90
2022-12-22T02:51:37.603Z,99.90
2022-12-22T02:54:24.200Z,99.90
2022-12-22T02:57:09.706Z,99.90
2022-12-22T02:59:55.177Z,99.90
2022-12-22T03:02:40.951Z,99.90
2022-12-22T03:05:26.214Z,99.90
2022-12-22T03:08:11.489Z,99.90
2022-12-22T03:10:57.193Z,99.90
2022-12-22T03:13:42.587Z,99.90
2022-12-22T03:16:28.289Z,99.90
2022-12-22T03:19:13.646Z,1.00
2022-12-22T03:21:59.046Z,1.00
2022-12-22T03:24:44.547Z,1.00
2022-12-22T03:27:11.223Z,1.00
2022-12-22T03:29:38.097Z,1.00
2022-12-22T03:32:04.976Z,1.00
2022-12-22T03:34:31.707Z,1.00
2022-12-22T03:36:58.345Z,1.00
2022-12-22T03:39:25.116Z,1.00
2022-12-22T03:42:10.609Z,1.00
2022-12-22T03:44:56.073Z,1.00
2022-12-22T03:47:22.765Z,1.00
2022-12-22T03:49:49.388Z,1.00
2022-12-22T03:52:16.066Z,1.00
2022-12-22T03:54:42.723Z,1.00
2022-12-22T03:57:09.385Z,1.00
2022-12-22T03:59:36.072Z,1.00
2022-12-22T04:02:02.900Z,1.00
2022-12-22T04:04:29.767Z,1.00
2022-12-22T04:06:56.432Z,1.00
2022-12-22T04:09:24.714Z,1.00
2022-12-22T04:12:10.205Z,1.00
2022-12-22T04:14:36.922Z,1.00
2022-12-22T04:17:05.052Z,1.00
2022-12-22T04:19:32.311Z,1.00
2022-12-22T04:21:59.416Z,1.00
2022-12-22T04:24:26.140Z,1.00
2022-12-22T04:26:53.301Z,1.00
2022-12-22T04:29:20.051Z,1.00
2022-12-22T04:31:46.742Z,1.00
2022-12-22T04:34:13.484Z,1.00
2022-12-22T04:36:40.133Z,1.00
2022-12-22T04:39:06.847Z,1.00
2022-12-22T04:41:33.535Z,1.00
2022-12-22T04:44:00.185Z,1.00
2022-12-22T04:46:26.910Z,1.00
2022-12-22T04:48:59.667Z,7.60
2022-12-22T04:51:28.135Z,18.50
2022-12-22T04:53:54.945Z,24.00
2022-12-22T04:56:21.586Z,12.00
2022-12-22T04:58:48.292Z,1.00
2022-12-22T05:01:17.578Z,1.00
2022-12-22T05:03:44.370Z,1.00
2022-12-22T05:06:11.581Z,5.20
2022-12-22T05:08:38.715Z,12.80
2022-12-22T05:11:06.199Z,21.70
2022-12-22T05:13:33.390Z,15.20
2022-12-22T05:16:04.810Z,21.40
2022-12-22T05:18:31.645Z,26.10
2022-12-22T05:20:58.333Z,23.40
2022-12-22T05:23:24.935Z,23.20
2022-12-22T05:25:51.545Z,25.00
2022-12-22T05:28:18.168Z,43.10
2022-12-22T05:30:44.880Z,49.60
2022-12-22T05:33:11.539Z,48.20
2022-12-22T05:35:38.198Z,47.50
2022-12-22T05:38:04.842Z,48.00
2022-12-22T05:40:31.544Z,53.60
2022-12-22T05:42:58.398Z,58.60
2022-12-22T05:45:25.128Z,61.40
2022-12-22T05:47:52.735Z,72.80
2022-12-22T05:50:22.506Z,82.20
2022-12-22T05:52:58.141Z,89.90
2022-12-22T05:55:24.825Z,94.60
2022-12-22T05:57:51.524Z,99.90
2022-12-22T06:00:18.616Z,99.90
2022-12-22T06:02:45.650Z,99.90
2022-12-22T06:05:14.343Z,99.90
2022-12-22T06:07:41.986Z,99.90
2022-12-22T06:10:12.836Z,99.90
2022-12-22T06:12:41.185Z,99.90
2022-12-22T06:15:09.617Z,99.90
2022-12-22T06:17:42.266Z,99.90
2022-12-22T06:20:12.360Z,99.90
2022-12-22T06:22:38.999Z,99.90
2022-12-22T06:25:06.872Z,99.90
2022-12-22T06:27:33.655Z,99.90
2022-12-22T06:30:00.281Z,99.90
2022-12-22T06:32:27.079Z,99.90
2022-12-22T06:34:53.801Z,99.90
2022-12-22T06:37:20.476Z,99.90
2022-12-22T06:39:47.201Z,99.90
2022-12-22T06:42:32.722Z,99.90
2022-12-22T06:44:59.400Z,99.90
2022-12-22T06:47:26.157Z,99.90
2022-12-22T06:49:52.909Z,99.90
2022-12-22T06:52:19.576Z,99.90
2022-12-22T06:54:46.240Z,99.90
2022-12-22T06:57:13.837Z,99.90
2022-12-22T06:59:40.718Z,99.90
2022-12-22T07:02:09.388Z,99.90
2022-12-22T07:04:36.141Z,99.90
2022-12-22T07:07:03.076Z,99.90
2022-12-22T07:09:29.880Z,99.90
2022-12-22T07:11:56.539Z,99.90
2022-12-22T07:14:23.246Z,99.90
2022-12-22T07:16:50.030Z,99.90
2022-12-22T07:19:16.785Z,99.90
2022-12-22T07:21:43.472Z,99.90
2022-12-22T07:24:10.164Z,99.90
2022-12-22T07:26:36.844Z,99.90
2022-12-22T07:29:03.567Z,99.90
2022-12-22T07:31:30.369Z,99.90
2022-12-22T07:33:57.141Z,99.90
2022-12-22T07:36:23.771Z,99.90
2022-12-22T07:38:51.936Z,99.90
2022-12-22T07:41:38.758Z,99.90
2022-12-22T07:44:07.062Z,99.90
2022-12-22T07:46:38.737Z,99.90
2022-12-22T07:49:35.830Z,99.90
2022-12-22T07:52:02.502Z,99.90
2022-12-22T07:54:29.246Z,99.90
2022-12-22T07:56:56.022Z,99.90
2022-12-22T07:59:22.680Z,99.90
2022-12-22T08:01:49.473Z,99.90
2022-12-22T08:04:16.422Z,99.90
2022-12-22T08:06:43.260Z,99.90
2022-12-22T08:09:13.029Z,1.00
2022-12-22T08:11:39.753Z,1.00
2022-12-22T08:14:06.499Z,1.00
2022-12-22T08:16:33.304Z,1.00
2022-12-22T08:19:00.117Z,1.00
2022-12-22T08:21:26.842Z,1.00
2022-12-22T08:23:53.539Z,1.00
2022-12-22T08:26:38.121Z,1.00
2022-12-22T08:29:19.954Z,1.00
2022-12-22T08:31:46.833Z,1.00
2022-12-22T08:34:16.316Z,1.00
2022-12-22T08:36:50.962Z,1.00
2022-12-22T08:39:19.803Z,1.00
2022-12-22T08:41:52.440Z,1.00
2022-12-22T08:44:22.278Z,1.00
2022-12-22T08:46:49.835Z,1.00
2022-12-22T08:49:16.592Z,1.00
2022-12-22T08:51:44.006Z,1.00
2022-12-22T08:54:11.431Z,1.00
2022-12-22T08:56:38.741Z,1.00
2022-12-22T08:59:07.857Z,1.00
2022-12-22T09:01:36.796Z,1.00
2022-12-22T09:04:03.817Z,1.00
2022-12-22T09:06:36.581Z,1.00
2022-12-22T09:09:09.888Z,1.00
2022-12-22T09:11:36.838Z,1.00
2022-12-22T09:14:04.494Z,1.00
2022-12-22T09:16:32.641Z,1.00
2022-12-22T09:19:00.258Z,1.00
2022-12-22T09:21:27.202Z,1.00
2022-12-22T09:23:55.758Z,1.00
2022-12-22T09:26:24.041Z,1.00
2022-12-22T09:28:51.203Z,1.00
2022-12-22T09:31:19.314Z,1.00
2022-12-22T09:33:46.364Z,1.00
2022-12-22T09:36:16.221Z,1.00
2022-12-22T09:38:43.563Z,1.00
2022-12-22T09:41:17.889Z,1.00
2022-12-22T09:43:44.796Z,1.00
2022-12-22T09:46:20.691Z,1.00
2022-12-22T09:48:48.163Z,1.00
2022-12-22T09:51:22.694Z,1.00
2022-12-22T09:53:58.398Z,1.00
2022-12-22T09:56:26.084Z,1.00
2022-12-22T09:58:53.050Z,1.00
2022-12-22T10:01:28.740Z,1.00
2022-12-22T10:04:23.063Z,1.00
2022-12-22T10:07:22.727Z,1.00
2022-12-22T10:09:51.136Z,1.00
2022-12-22T10:12:24.628Z,1.00
2022-12-22T10:14:53.582Z,1.00
2022-12-22T10:17:29.345Z,1.00
2022-12-22T10:20:21.011Z,1.00
2022-12-22T10:22:52.128Z,1.00
2022-12-22T10:28:35.320Z,1.00
2022-12-22T10:31:15.884Z,1.00
2022-12-22T10:33:47.509Z,1.00
2022-12-22T10:36:24.917Z,1.00
2022-12-22T10:39:11.193Z,1.00
2022-12-22T10:41:45.289Z,1.00
2022-12-22T10:44:22.527Z,99.90
2022-12-22T10:46:55.337Z,99.90
2022-12-22T10:52:16.878Z,99.90
2022-12-22T10:54:44.926Z,99.90
2022-12-22T10:57:14.368Z,99.90
2022-12-22T10:59:59.874Z,99.90
2022-12-22T11:02:38.102Z,99.90
2022-12-22T11:05:12.117Z,99.90
2022-12-22T11:07:42.011Z,99.90
2022-12-22T11:10:14.751Z,99.90
2022-12-22T11:12:57.589Z,99.90
2022-12-22T11:15:48.524Z,99.90
2022-12-22T11:18:30.130Z,99.90
2022-12-22T11:21:06.170Z,99.90
2022-12-22T11:23:46.611Z,99.90
2022-12-22T11:26:31.418Z,99.90
2022-12-22T11:29:04.586Z,99.90
2022-12-22T11:31:58.980Z,99.90
2022-12-22T11:34:41.184Z,99.90
2022-12-22T11:37:26.664Z,99.90
2022-12-22T11:39:59.587Z,99.90
2022-12-22T11:42:47.859Z,99.90
2022-12-22T11:45:36.404Z,99.90
2022-12-22T11:48:35.931Z,99.90
2022-12-22T11:51:27.723Z,99.90
2022-12-22T11:54:10.465Z,99.90
2022-12-22T11:56:56.205Z,49.20
2022-12-22T11:59:49.641Z,1.00
2022-12-22T12:02:25.978Z,1.00
2022-12-22T12:05:22.480Z,1.00
2022-12-22T12:07:57.996Z,1.00
2022-12-22T12:10:44.778Z,1.00
2022-12-22T12:13:37.885Z,1.00
2022-12-22T12:16:20.156Z,1.00
2022-12-22T12:19:11.818Z,1.00
2022-12-22T12:21:55.018Z,1.00
2022-12-22T12:24:43.096Z,99.90
2022-12-22T12:27:28.509Z,99.90
2022-12-22T12:33:24.099Z,1.00
2022-12-22T12:36:02.852Z,1.00
2022-12-22T12:39:12.698Z,1.00
2022-12-22T12:42:03.307Z,1.00
2022-12-22T12:44:35.472Z,1.00
2022-12-22T12:47:22.309Z,1.00
2022-12-22T12:50:00.624Z,1.00
2022-12-22T12:52:39.489Z,99.90
2022-12-22T12:55:38.609Z,99.90
2022-12-22T12:58:10.366Z,99.90
2022-12-22T13:00:40.717Z,99.90
2022-12-22T13:06:49.075Z,99.90
2022-12-22T13:12:54.035Z,99.90
2022-12-22T13:15:29.930Z,99.90
2022-12-22T13:17:57.413Z,99.90
2022-12-22T13:20:26.309Z,99.90
2022-12-22T13:22:58.201Z,99.90
2022-12-22T13:25:36.505Z,99.90
2022-12-22T13:28:03.961Z,99.90
2022-12-22T13:30:31.339Z,99.90
2022-12-22T13:33:02.121Z,99.90
2022-12-22T13:35:44.877Z,99.90
2022-12-22T13:38:35.582Z,99.90
2022-12-22T13:41:26.900Z,99.90
2022-12-22T13:44:01.256Z,99.90
2022-12-22T13:46:28.157Z,99.90
2022-12-22T13:48:57.522Z,99.90
2022-12-22T13:51:28.232Z,99.90
2022-12-22T13:54:16.497Z,99.90
2022-12-22T13:56:46.789Z,99.90
2022-12-22T13:59:42.174Z,99.90
2022-12-22T14:02:08.951Z,99.90
2022-12-22T14:04:38.059Z,99.90
2022-12-22T14:07:16.429Z,99.90
2022-12-22T14:09:48.073Z,99.90
2022-12-22T14:12:26.957Z,99.90
2022-12-22T14:14:55.444Z,99.90
2022-12-22T14:17:28.104Z,99.90
2022-12-22T14:19:58.188Z,99.90
2022-12-22T14:22:49.266Z,99.90
2022-12-22T14:25:19.480Z,99.90
2022-12-22T14:27:49.338Z,99.90
2022-12-22T14:30:22.226Z,99.90
2022-12-22T14:32:55.211Z,99.90
2022-12-22T14:35:22.513Z,99.90
2022-12-22T14:37:52.003Z,99.90
2022-12-22T14:40:38.495Z,99.90
2022-12-22T14:43:17.379Z,99.90
2022-12-22T14:45:45.837Z,99.90
2022-12-22T14:48:38.831Z,99.90
2022-12-22T14:51:06.297Z,99.90
2022-12-22T14:53:49.869Z,99.90
2022-12-22T14:56:20.085Z,99.90
2022-12-22T14:58:48.053Z,99.90
2022-12-22T15:01:28.452Z,99.90
2022-12-22T15:04:04.599Z,99.90
2022-12-22T15:06:45.562Z,99.90
2022-12-22T15:09:15.242Z,99.90
2022-12-22T15:11:47.535Z,99.90
2022-12-22T15:14:18.690Z,99.90
2022-12-22T15:16:46.411Z,99.90
2022-12-22T15:19:16.491Z,99.90
2022-12-22T15:21:43.415Z,99.90
2022-12-22T15:24:15.970Z,99.90
2022-12-22T15:26:43.650Z,99.90
2022-12-22T15:29:18.322Z,99.90
2022-12-22T15:31:45.184Z,99.90
2022-12-22T15:34:18.944Z,99.90
2022-12-22T15:36:45.694Z,99.90
2022-12-22T15:39:14.702Z,99.90
2022-12-22T15:41:41.909Z,99.90
2022-12-22T15:44:08.918Z,99.90
2022-12-22T15:46:36.155Z,99.90
2022-12-22T15:49:03.351Z,99.90
2022-12-22T15:51:31.939Z,99.90
2022-12-22T15:53:59.501Z,99.90
2022-12-22T15:56:27.636Z,99.90
2022-12-22T15:58:55.561Z,99.90
2022-12-22T16:01:22.334Z,99.90
2022-12-22T16:03:49.046Z,1.00
2022-12-22T16:06:18.890Z,1.00
2022-12-22T16:08:51.966Z,1.00
2022-12-22T16:11:19.879Z,1.00
2022-12-22T16:13:49.241Z,1.00
2022-12-22T16:16:16.329Z,1.00
2022-12-22T16:18:43.087Z,1.00
2022-12-22T16:21:20.128Z,1.00
2022-12-22T16:23:49.379Z,1.00
2022-12-22T16:26:19.715Z,1.00
2022-12-22T16:28:46.747Z,1.00
2022-12-22T16:31:22.203Z,1.00
2022-12-22T16:33:50.346Z,1.00
2022-12-22T16:36:17.298Z,1.00
2022-12-22T16:38:45.815Z,1.00
2022-12-22T16:41:24.418Z,1.00
2022-12-22T16:43:59.484Z,1.00
2022-12-22T16:46:30.781Z,1.00
2022-12-22T16:49:00.874Z,1.00
2022-12-22T16:51:37.166Z,1.00
2022-12-22T16:54:04.482Z,1.00
2022-12-22T16:56:31.819Z,1.00
2022-12-22T16:58:58.930Z,1.00
2022-12-22T17:01:40.101Z,1.00
2022-12-22T17:04:14.645Z,1.00
2022-12-22T17:06:42.018Z,1.00
2022-12-22T17:09:15.912Z,1.00
2022-12-22T17:11:44.911Z,1.00
2022-12-22T17:14:17.396Z,1.00
2022-12-22T17:16:44.099Z,1.00
2022-12-22T17:19:13.489Z,1.00
2022-12-22T17:21:40.182Z,1.00
2022-12-22T17:24:07.234Z,1.00
2022-12-22T17:26:36.584Z,1.00
2022-12-22T17:29:04.419Z,1.00
2022-12-22T17:31:31.281Z,1.00
2022-12-22T17:33:58.201Z,1.00
2022-12-22T17:36:30.503Z,1.00
2022-12-22T17:38:57.881Z,1.00
2022-12-22T17:41:24.972Z,1.00
2022-12-22T17:43:51.621Z,1.00
2022-12-22T17:46:20.415Z,1.00
2022-12-22T17:48:47.837Z,1.00
2022-12-22T17:51:18.219Z,1.00
2022-12-22T17:53:46.436Z,1.00
2022-12-22T17:56:24.410Z,1.00
2022-12-22T17:58:51.825Z,1.00
2022-12-22T18:01:30.105Z,1.00
2022-12-22T18:03:57.216Z,1.00
2022-12-22T18:06:32.833Z,1.00
2022-12-22T18:08:59.900Z,1.00
2022-12-22T18:11:27.010Z,1.00
2022-12-22T18:13:54.352Z,1.00
2022-12-22T18:16:21.672Z,1.00
2022-12-22T18:18:48.607Z,1.00
2022-12-22T18:21:21.233Z,1.00
2022-12-22T18:23:50.677Z,1.00
2022-12-22T18:26:26.980Z,1.00
2022-12-22T18:28:54.735Z,1.00
2022-12-22T18:31:22.646Z,1.00
2022-12-22T18:33:49.596Z,1.00
2022-12-22T18:36:17.531Z,1.00
2022-12-22T18:38:45.680Z,1.00
2022-12-22T18:41:20.248Z,1.00
2022-12-22T18:43:47.421Z,1.00
2022-12-22T18:46:14.376Z,1.00
2022-12-22T18:48:41.791Z,1.00
2022-12-22T18:51:20.848Z,1.00
2022-12-22T18:53:49.287Z,1.00
2022-12-22T18:56:16.021Z,1.00
2022-12-22T18:58:43.118Z,1.00
2022-12-22T19:01:19.243Z,1.00
2022-12-22T19:03:46.915Z,1.00
2022-12-22T19:06:18.248Z,1.00
2022-12-22T19:08:47.202Z,1.00
2022-12-22T19:11:16.319Z,1.00
2022-12-22T19:13:48.860Z,1.00
2022-12-22T19:16:18.170Z,1.00
2022-12-22T19:18:44.947Z,1.00
2022-12-22T19:21:16.999Z,1.00
2022-12-22T19:23:43.645Z,1.00
2022-12-22T19:26:24.088Z,1.00
2022-12-22T19:29:01.610Z,1.00
2022-12-22T19:31:33.565Z,1.00
2022-12-22T19:34:02.687Z,1.00
2022-12-22T19:36:30.499Z,1.00
2022-12-22T19:39:03.771Z,1.00
2022-12-22T19:41:40.871Z,1.00
2022-12-22T19:44:29.585Z,1.00
2022-12-22T19:46:59.290Z,1.00
2022-12-22T19:49:28.039Z,1.00
2022-12-22T19:51:58.548Z,1.00
2022-12-22T19:54:25.513Z,1.00
2022-12-22T19:56:56.536Z,1.00
2022-12-22T19:59:39.851Z,1.00
2022-12-22T20:02:30.431Z,1.00
2022-12-22T20:04:58.380Z,1.00
2022-12-22T20:07:27.421Z,1.00
2022-12-22T20:09:54.443Z,1.00
2022-12-22T20:12:33.183Z,1.00
2022-12-22T20:15:01.849Z,1.00
2022-12-22T20:17:28.814Z,1.00
2022-12-22T20:19:55.661Z,1.00
2022-12-22T20:22:23.501Z,1.00
2022-12-22T20:24:51.605Z,1.00
2022-12-22T20:27:23.025Z,1.00
2022-12-22T20:29:50.047Z,1.00
2022-12-22T20:32:20.894Z,1.00
2022-12-22T20:34:52.847Z,1.00
2022-12-22T20:37:19.892Z,1.00
2022-12-22T20:39:46.993Z,1.00
2022-12-22T20:42:19.555Z,39.20
2022-12-22T20:45:03.161Z,96.80
2022-12-22T20:47:30.443Z,99.90
2022-12-22T20:49:57.203Z,99.90
2022-12-22T20:52:23.894Z,99.90
2022-12-22T20:54:50.627Z,99.90
2022-12-22T20:57:17.803Z,99.90
2022-12-22T20:59:48.167Z,99.90
2022-12-22T21:02:26.996Z,1.00
2022-12-22T21:04:53.923Z,1.00
2022-12-22T21:07:20.582Z,1.00
2022-12-22T21:09:47.273Z,1.00
2022-12-22T21:12:13.943Z,1.00
2022-12-22T21:14:40.739Z,1.00
2022-12-22T21:17:16.503Z,1.00
2022-12-22T21:19:43.648Z,1.00
2022-12-22T21:22:10.807Z,1.00
2022-12-22T21:24:38.473Z,1.00
2022-12-22T21:27:05.749Z,1.00
2022-12-22T21:29:32.797Z,1.00
2022-12-22T21:31:59.591Z,1.00
2022-12-22T21:34:26.311Z,1.00
2022-12-22T21:36:59.611Z,1.00
2022-12-22T21:39:37.080Z,1.00
2022-12-22T21:42:05.179Z,1.00
2022-12-22T21:44:35.420Z,1.00
2022-12-22T21:47:03.657Z,1.00
2022-12-22T21:49:32.643Z,1.00
2022-12-22T21:51:59.760Z,1.00
2022-12-22T21:54:28.012Z,1.00
2022-12-22T21:56:55.301Z,1.00
2022-12-22T21:59:23.125Z,1.00
2022-12-22T22:01:53.020Z,1.00
2022-12-22T22:04:21.009Z,20.10
2022-12-22T22:06:48.367Z,23.00
2022-12-22T22:09:15.149Z,25.90
2022-12-22T22:12:02.334Z,40.10
2022-12-22T22:14:29.028Z,56.40
2022-12-22T22:16:55.736Z,93.20
2022-12-22T22:19:22.489Z,92.90
2022-12-22T22:21:49.225Z,96.40
2022-12-22T22:24:15.881Z,99.90
2022-12-22T22:26:45.189Z,99.90
2022-12-22T22:29:11.955Z,99.90
2022-12-22T22:31:40.526Z,99.90
2022-12-22T22:34:07.351Z,99.90
2022-12-22T22:36:34.050Z,99.90
2022-12-22T22:39:00.758Z,99.90
2022-12-22T22:41:29.153Z,99.90
2022-12-22T22:43:55.952Z,99.90
2022-12-22T22:46:22.913Z,99.90
2022-12-22T22:48:50.607Z,99.90
2022-12-22T22:51:17.291Z,99.90
2022-12-22T22:53:43.994Z,99.90
2022-12-22T22:56:10.658Z,99.90
2022-12-22T22:58:37.358Z,99.90
2022-12-22T23:01:06.123Z,99.90
2022-12-22T23:03:33.046Z,99.90
2022-12-22T23:06:04.422Z,99.90
2022-12-22T23:08:31.193Z,99.90
2022-12-22T23:10:57.898Z,99.90
2022-12-22T23:13:24.654Z,99.90
2022-12-22T23:16:03.022Z,99.90
2022-12-22T23:18:31.044Z,99.90
2022-12-22T23:20:58.697Z,99.90
2022-12-22T23:23:25.520Z,99.90
2022-12-22T23:25:52.715Z,99.90
2022-12-22T23:28:19.795Z,99.90
2022-12-22T23:30:49.599Z,99.90
2022-12-22T23:33:16.774Z,99.90
2022-12-22T23:35:49.652Z,99.90
2022-12-22T23:38:17.485Z,99.90
2022-12-22T23:40:53.436Z,99.90
2022-12-22T23:43:20.556Z,99.90
2022-12-22T23:45:47.228Z,99.90
2022-12-22T23:48:13.950Z,99.90
2022-12-22T23:50:40.608Z,99.90
2022-12-22T23:53:07.352Z,99.90
2022-12-22T23:55:34.058Z,99.90
2022-12-22T23:58:00.799Z,99.90
